Wolbach, Nebraska
Current Conditions -  °F | °C
As of 10:15 AM on Wednesday 28 Jan 2015 (Local Time) from KBVN Reporting Station
Clear Clear  
Wind Chill: 37°   Ceiling: Unl
Heat Index: 37°   Visibility: 10mi
Dew Point: 32°   Wind: 0mph
Humidity: 80%   Direction: NA
Pressure: 29.79"   Gusts: NA
Location:  41.4°N, 98.39°W
Report Text: KBVN 281615Z AUTO 00000KT 10SM CLR 03/00 A2979 RMK AO2 T00301002
Loading
Personal Weather Stations






























Interactive Weather Map New forecast layout! Learn more

10-Day Weather Forecast

Advertisements
Track Severe Weather on mobile